Time;durP1;ratioP1;P1;durP2;ratioP2;P2;SDS_P1;SDS_P2;PMS_P1;PMS_P2;Temp;Humidity;BMP_temperature;BMP_pressure;BME280_temperature;BME280_humidity;BME280_pressure;Samples;Min_cycle;Max_cycle;Signal;HPM_P1;HPM_P2
2023/09/22 00:01:59;;;;;;;;;;;;;;;;;;5073867;28;20009;-80
2023/09/22 00:04:25;;;;;;;;;;;;;;;;;;5070487;28;19982;-81
2023/09/22 00:06:50;;;;;;;;;;;;;;;;;;5066580;28;19920;-80
2023/09/22 00:09:15;;;;;;;;;;;;;;;;;;5067582;28;20292;-81
2023/09/22 00:11:41;;;;;;;;;;;;;;;;;;5067772;28;20394;-80
2023/09/22 00:14:07;;;;;;;;;;;;;;;;;;5075256;28;20031;-81
2023/09/22 00:16:34;;;;;;;;;;;;;;;;;;5068851;28;19912;-81
2023/09/22 00:19:04;;;;;;;;;;;;;;;;;;5069686;28;19921;-80
2023/09/22 00:21:30;;;;;;;;;;;;;;;;;;5066867;28;19952;-81
2023/09/22 00:23:55;;;;;;;;;;;;;;;;;;5069866;28;19970;-81
2023/09/22 00:26:20;;;;;;;;;;;;;;;;;;5068600;28;19933;-81
2023/09/22 00:28:46;;;;;;;;;;;;;;;;;;5070802;28;19935;-81
2023/09/22 00:31:12;;;;;;;;;;;;;;;;;;5068474;28;19917;-81
2023/09/22 00:33:37;;;;;;;;;;;;;;;;;;5067541;28;19978;-81
2023/09/22 00:36:03;;;;;;;;;;;;;;;;;;5078158;28;19966;-81
2023/09/22 00:38:28;;;;;;;;;;;;;;;;;;5050722;28;19917;-81
2023/09/22 00:40:54;;;;;;;;;;;;;;;;;;5065458;28;19916;-81
2023/09/22 00:43:19;;;;;;;;;;;;;;;;;;5063156;28;19913;-81
2023/09/22 00:45:44;;;;;;;;;;;;;;;;;;5065021;28;20384;-82
2023/09/22 00:48:10;;;;;;;;;;;;;;;;;;5061749;28;19919;-81
2023/09/22 00:50:36;;;;;;;;;;;;;;;;;;5050551;28;19917;-81
2023/09/22 00:53:01;;;;;;;;;;;;;;;;;;5037043;28;20448;-81
2023/09/22 00:55:26;;;;;;;;;;;;;;;;;;5052475;28;19923;-81
2023/09/22 00:57:52;;;;;;;;;;;;;;;;;;5061793;28;19935;-81
2023/09/22 01:00:19;;;;;;;;;;;;;;;;;;5060580;28;19916;-81
2023/09/22 01:02:44;;;;;;;;;;;;;;;;;;5062375;28;19920;-81
2023/09/22 01:05:10;;;;;;;;;;;;;;;;;;5048034;28;20303;-81
2023/09/22 01:07:35;;;;;;;;;;;;;;;;;;5063415;28;19991;-81
2023/09/22 01:10:00;;;;;;;;;;;;;;;;;;5065929;28;19985;-81
2023/09/22 01:12:26;;;;;;;;;;;;;;;;;;5057239;28;19913;-80
2023/09/22 01:14:51;;;;;;;;;;;;;;;;;;5054151;28;19959;-81
2023/09/22 01:17:16;;;;;;;;;;;;;;;;;;5056217;28;19951;-82
2023/09/22 01:19:42;;;;;;;;;;;;;;;;;;5052927;28;19971;-81
2023/09/22 01:22:08;;;;;;;;;;;;;;;;;;5054265;28;20272;-81
2023/09/22 01:24:34;;;;;;;;;;;;;;;;;;5053001;28;19924;-81
2023/09/22 01:26:59;;;;;;;;;;;;;;;;;;5064015;28;19944;-82
2023/09/22 01:29:24;;;;;;;;;;;;;;;;;;5071013;28;19917;-81
2023/09/22 01:31:50;;;;;;;;;;;;;;;;;;5068795;28;19979;-81
2023/09/22 01:34:15;;;;;;;;;;;;;;;;;;5061538;28;20425;-81
2023/09/22 01:36:41;;;;;;;;;;;;;;;;;;5067422;28;20383;-81
2023/09/22 01:39:09;;;;;;;;;;;;;;;;;;5063288;28;20008;-81
2023/09/22 01:41:35;;;;;;;;;;;;;;;;;;5065366;28;19919;-81
2023/09/22 01:44:00;;;;;;;;;;;;;;;;;;5052788;28;19920;-81
2023/09/22 01:46:26;;;;;;;;;;;;;;;;;;5065692;28;20294;-82
2023/09/22 01:48:51;;;;;;;;;;;;;;;;;;5050755;28;20007;-82
2023/09/22 01:51:17;;;;;;;;;;;;;;;;;;5050866;28;19913;-81
2023/09/22 01:53:43;;;;;;;;;;;;;;;;;;5057312;28;19966;-81
2023/09/22 01:56:08;;;;;;;;;;;;;;;;;;5070398;28;20287;-81
2023/09/22 01:58:33;;;;;;;;;;;;;;;;;;5058404;28;20040;-81
2023/09/22 02:00:59;;;;;;;;;;;;;;;;;;5069031;28;19913;-81
2023/09/22 02:03:25;;;;;;;;;;;;;;;;;;5064197;28;19979;-81
2023/09/22 02:05:50;;;;;;;;;;;;;;;;;;5050755;28;19917;-81
2023/09/22 02:08:16;;;;;;;;;;;;;;;;;;5051281;28;19997;-81
2023/09/22 02:10:41;;;;;;;;;;;;;;;;;;5070663;28;19916;-81
2023/09/22 02:13:08;;;;;;;;;;;;;;;;;;5069185;28;20351;-81
2023/09/22 02:15:35;;;;;;;;;;;;;;;;;;5062207;28;20307;-81
2023/09/22 02:18:01;;;;;;;;;;;;;;;;;;5067873;28;19932;-81
2023/09/22 02:20:26;;;;;;;;;;;;;;;;;;5064019;28;19913;-81
2023/09/22 02:22:51;;;;;;;;;;;;;;;;;;5037052;28;19917;-81
2023/09/22 02:25:17;;;;;;;;;;;;;;;;;;5050956;28;20414;-81
2023/09/22 02:27:42;;;;;;;;;;;;;;;;;;5069766;28;19935;-82
2023/09/22 02:30:11;;;;;;;;;;;;;;;;;;5071385;28;19913;-81
2023/09/22 02:32:36;;;;;;;;;;;;;;;;;;5070663;28;19917;-81
2023/09/22 02:35:01;;;;;;;;;;;;;;;;;;5069028;28;19920;-80
2023/09/22 02:37:27;;;;;;;;;;;;;;;;;;5070692;28;19938;-81
2023/09/22 02:39:52;;;;;;;;;;;;;;;;;;5068655;28;20373;-80
2023/09/22 02:42:18;;;;;;;;;;;;;;;;;;5069959;28;19969;-80
2023/09/22 02:44:43;;;;;;;;;;;;;;;;;;5068561;28;19948;-80
2023/09/22 02:47:09;;;;;;;;;;;;;;;;;;5069941;28;20352;-81
2023/09/22 02:49:34;;;;;;;;;;;;;;;;;;5066929;28;20376;-81
2023/09/22 02:52:00;;;;;;;;;;;;;;;;;;5058160;28;19916;-80
2023/09/22 02:54:26;;;;;;;;;;;;;;;;;;5071038;28;19920;-80
2023/09/22 02:56:51;;;;;;;;;;;;;;;;;;5063151;28;20051;-80
2023/09/22 02:59:17;;;;;;;;;;;;;;;;;;5065721;28;19912;-80
2023/09/22 03:01:43;;;;;;;;;;;;;;;;;;5071086;28;19974;-80
2023/09/22 03:04:09;;;;;;;;;;;;;;;;;;5069821;28;19963;-80
2023/09/22 03:06:35;;;;;;;;;;;;;;;;;;5068895;28;19920;-81
2023/09/22 03:09:00;;;;;;;;;;;;;;;;;;5066627;28;19916;-80
2023/09/22 03:11:26;;;;;;;;;;;;;;;;;;5068572;28;19940;-81
2023/09/22 03:13:51;;;;;;;;;;;;;;;;;;5066216;28;19912;-81
2023/09/22 03:16:17;;;;;;;;;;;;;;;;;;5068413;28;19916;-82
2023/09/22 03:18:42;;;;;;;;;;;;;;;;;;5066358;28;19920;-81
2023/09/22 03:21:08;;;;;;;;;;;;;;;;;;5068018;28;19917;-81
2023/09/22 03:23:33;;;;;;;;;;;;;;;;;;5055764;28;19967;-81
2023/09/22 03:25:58;;;;;;;;;;;;;;;;;;5062225;28;19982;-81
2023/09/22 03:28:24;;;;;;;;;;;;;;;;;;5064293;28;19984;-82
2023/09/22 03:30:49;;;;;;;;;;;;;;;;;;5053642;28;19931;-81
2023/09/22 03:33:14;;;;;;;;;;;;;;;;;;5067568;28;19912;-81
2023/09/22 03:35:40;;;;;;;;;;;;;;;;;;5036242;28;19917;-81
2023/09/22 03:38:09;;;;;;;;;;;;;;;;;;5068924;28;20287;-81
2023/09/22 03:40:40;;;;;;;;;;;;;;;;;;5065651;28;19923;-81
2023/09/22 03:43:07;;;;;;;;;;;;;;;;;;5057485;28;20007;-81
2023/09/22 03:45:32;;;;;;;;;;;;;;;;;;5062402;28;20473;-82
2023/09/22 03:48:23;;;;;;;;;;;;;;;;;;5058511;28;19928;-81
2023/09/22 03:50:48;;;;;;;;;;;;;;;;;;5063015;28;19916;-81
2023/09/22 03:53:14;;;;;;;;;;;;;;;;;;5050481;28;20295;-81
2023/09/22 03:55:39;;;;;;;;;;;;;;;;;;5061875;28;19916;-81
2023/09/22 03:58:05;;;;;;;;;;;;;;;;;;5050251;28;20461;-81
2023/09/22 04:00:30;;;;;;;;;;;;;;;;;;5049156;28;19920;-81
2023/09/22 04:02:56;;;;;;;;;;;;;;;;;;5063833;28;19961;-82
2023/09/22 04:05:21;;;;;;;;;;;;;;;;;;5067236;28;20383;-82
2023/09/22 04:07:47;;;;;;;;;;;;;;;;;;5067193;28;19920;-81
2023/09/22 04:10:12;;;;;;;;;;;;;;;;;;5067987;28;19923;-80
2023/09/22 04:12:38;;;;;;;;;;;;;;;;;;5054292;28;20281;-83
2023/09/22 04:15:04;;;;;;;;;;;;;;;;;;5062009;28;19917;-81
2023/09/22 04:17:29;;;;;;;;;;;;;;;;;;5066582;28;20015;-81
2023/09/22 04:19:55;;;;;;;;;;;;;;;;;;5071264;28;20016;-81
2023/09/22 04:22:21;;;;;;;;;;;;;;;;;;5067161;28;19960;-81
2023/09/22 04:24:47;;;;;;;;;;;;;;;;;;5062991;28;19920;-81
2023/09/22 04:27:14;;;;;;;;;;;;;;;;;;5073085;28;19928;-81
2023/09/22 04:29:39;;;;;;;;;;;;;;;;;;5085062;28;19924;-81
2023/09/22 04:32:07;;;;;;;;;;;;;;;;;;5075501;28;20395;-80
2023/09/22 04:34:33;;;;;;;;;;;;;;;;;;5068447;28;19917;-80
2023/09/22 04:36:58;;;;;;;;;;;;;;;;;;5074106;28;19913;-82
2023/09/22 04:39:23;;;;;;;;;;;;;;;;;;5083366;28;20516;-81
2023/09/22 04:41:48;;;;;;;;;;;;;;;;;;5081781;28;19913;-82
2023/09/22 04:44:15;;;;;;;;;;;;;;;;;;5083173;28;19978;-81
2023/09/22 04:46:40;;;;;;;;;;;;;;;;;;5065399;28;19967;-81
2023/09/22 04:49:06;;;;;;;;;;;;;;;;;;5082915;28;20441;-81
2023/09/22 04:51:32;;;;;;;;;;;;;;;;;;5060913;28;20019;-81
2023/09/22 04:53:57;;;;;;;;;;;;;;;;;;5076099;28;20011;-82
2023/09/22 04:56:22;;;;;;;;;;;;;;;;;;5073579;28;19912;-82
2023/09/22 04:58:48;;;;;;;;;;;;;;;;;;5081022;28;19916;-81
2023/09/22 05:01:14;;;;;;;;;;;;;;;;;;5071962;28;19912;-82
2023/09/22 05:03:39;;;;;;;;;;;;;;;;;;5072508;28;19924;-79
2023/09/22 05:06:06;;;;;;;;;;;;;;;;;;5091896;28;20010;-87
2023/09/22 05:08:31;;;;;;;;;;;;;;;;;;5095029;28;19920;-84
2023/09/22 05:10:57;;;;;;;;;;;;;;;;;;5073135;28;20003;-84
2023/09/22 05:13:22;;;;;;;;;;;;;;;;;;5079370;28;20029;-85
2023/09/22 05:15:48;;;;;;;;;;;;;;;;;;5079292;28;19912;-85
2023/09/22 05:18:14;;;;;;;;;;;;;;;;;;5062602;28;19923;-87
2023/09/22 05:20:40;;;;;;;;;;;;;;;;;;5077701;28;19913;-87
2023/09/22 05:23:05;;;;;;;;;;;;;;;;;;5077523;28;19920;-87
2023/09/22 05:25:31;;;;;;;;;;;;;;;;;;5077552;28;20411;-85
2023/09/22 05:27:56;;;;;;;;;;;;;;;;;;5076928;28;19924;-86
2023/09/22 05:30:23;;;;;;;;;;;;;;;;;;5063837;28;20307;-86
2023/09/22 05:32:48;;;;;;;;;;;;;;;;;;5076537;28;20311;-86
2023/09/22 05:35:13;;;;;;;;;;;;;;;;;;5086405;28;19912;-86
2023/09/22 05:37:39;;;;;;;;;;;;;;;;;;5063034;28;19916;-87
2023/09/22 05:40:10;;;;;;;;;;;;;;;;;;5066176;28;20018;-86
2023/09/22 05:42:36;;;;;;;;;;;;;;;;;;5070291;28;19922;-86
2023/09/22 05:45:03;;;;;;;;;;;;;;;;;;5093004;28;19912;-87
2023/09/22 05:47:29;;;;;;;;;;;;;;;;;;5067215;28;19920;-86
2023/09/22 05:49:55;;;;;;;;;;;;;;;;;;5076014;28;20005;-86
2023/09/22 05:52:20;;;;;;;;;;;;;;;;;;5079441;28;19983;-86
2023/09/22 05:54:46;;;;;;;;;;;;;;;;;;5081010;28;19938;-86
2023/09/22 05:57:12;;;;;;;;;;;;;;;;;;5063849;28;19956;-85
2023/09/22 05:59:37;;;;;;;;;;;;;;;;;;5074828;28;19913;-86
2023/09/22 06:02:02;;;;;;;;;;;;;;;;;;5080138;28;19917;-86
2023/09/22 06:04:30;;;;;;;;;;;;;;;;;;5078103;28;19962;-86
2023/09/22 06:06:56;;;;;;;;;;;;;;;;;;5089555;28;19920;-87
2023/09/22 06:09:21;;;;;;;;;;;;;;;;;;5060285;28;19923;-86
2023/09/22 06:11:46;;;;;;;;;;;;;;;;;;5076520;28;19921;-87
2023/09/22 06:14:12;;;;;;;;;;;;;;;;;;5075980;28;19912;-85
2023/09/22 06:16:37;;;;;;;;;;;;;;;;;;5072284;28;19917;-85
2023/09/22 06:19:03;;;;;;;;;;;;;;;;;;5075517;28;19912;-86
2023/09/22 06:21:32;;;;;;;;;;;;;;;;;;5065989;28;19916;-86
2023/09/22 06:23:57;;;;;;;;;;;;;;;;;;5077063;28;19991;-86
2023/09/22 06:26:23;;;;;;;;;;;;;;;;;;5056738;28;20472;-86
2023/09/22 06:28:48;;;;;;;;;;;;;;;;;;5076187;28;19961;-85
2023/09/22 06:31:13;;;;;;;;;;;;;;;;;;5077027;28;19917;-86
2023/09/22 06:33:39;;;;;;;;;;;;;;;;;;5078230;28;19912;-87
2023/09/22 06:36:04;;;;;;;;;;;;;;;;;;5068104;28;19924;-86
2023/09/22 06:38:32;;;;;;;;;;;;;;;;;;5079704;28;19951;-86
2023/09/22 06:40:58;;;;;;;;;;;;;;;;;;5071932;28;20479;-86
2023/09/22 06:43:23;;;;;;;;;;;;;;;;;;5066828;28;20013;-85
2023/09/22 06:45:51;;;;;;;;;;;;;;;;;;5060488;28;19923;-86
2023/09/22 06:48:17;;;;;;;;;;;;;;;;;;5054198;28;19916;-85
2023/09/22 06:50:42;;;;;;;;;;;;;;;;;;5070940;28;19984;-84
2023/09/22 06:53:08;;;;;;;;;;;;;;;;;;5060720;28;19912;-86
2023/09/22 06:55:33;;;;;;;;;;;;;;;;;;5091102;28;19965;-86
2023/09/22 06:57:59;;;;;;;;;;;;;;;;;;5076963;28;19913;-87
2023/09/22 07:00:28;;;;;;;;;;;;;;;;;;5075325;28;20375;-87
2023/09/22 07:02:53;;;;;;;;;;;;;;;;;;5075110;28;19962;-86
2023/09/22 07:05:19;;;;;;;;;;;;;;;;;;5076357;28;19916;-86
2023/09/22 07:07:44;;;;;;;;;;;;;;;;;;5071937;28;19916;-87
2023/09/22 07:10:10;;;;;;;;;;;;;;;;;;5075744;28;19935;-88
2023/09/22 07:12:36;;;;;;;;;;;;;;;;;;5060154;28;20395;-87
2023/09/22 07:15:02;;;;;;;;;;;;;;;;;;5076210;28;19924;-87
2023/09/22 07:17:27;;;;;;;;;;;;;;;;;;5076202;28;19912;-87
2023/09/22 07:19:52;;;;;;;;;;;;;;;;;;5073171;28;19917;-87
2023/09/22 07:22:17;;;;;;;;;;;;;;;;;;5055450;28;19912;-87
2023/09/22 07:24:43;;;;;;;;;;;;;;;;;;5068769;28;19947;-86
2023/09/22 07:27:09;;;;;;;;;;;;;;;;;;5074567;28;20374;-86
2023/09/22 07:29:35;;;;;;;;;;;;;;;;;;5083835;28;20386;-87
2023/09/22 07:32:01;;;;;;;;;;;;;;;;;;5079303;28;19919;-87
2023/09/22 07:34:26;;;;;;;;;;;;;;;;;;5074080;28;19916;-87
2023/09/22 07:36:52;;;;;;;;;;;;;;;;;;5074993;28;20404;-87
2023/09/22 07:39:18;;;;;;;;;;;;;;;;;;5071929;28;19946;-88
2023/09/22 07:41:43;;;;;;;;;;;;;;;;;;5075082;28;19928;-85
2023/09/22 07:44:09;;;;;;;;;;;;;;;;;;5076172;28;19916;-87
2023/09/22 07:46:34;;;;;;;;;;;;;;;;;;5079954;28;19917;-87
2023/09/22 07:48:59;;;;;;;;;;;;;;;;;;5078827;28;19916;-87
2023/09/22 07:51:25;;;;;;;;;;;;;;;;;;5084748;28;19912;-88
2023/09/22 07:53:50;;;;;;;;;;;;;;;;;;5079054;28;20414;-86
2023/09/22 07:56:18;;;;;;;;;;;;;;;;;;5079695;28;19955;-85
2023/09/22 07:58:44;;;;;;;;;;;;;;;;;;5080837;28;19916;-86
2023/09/22 08:01:09;;;;;;;;;;;;;;;;;;5081466;28;19979;-86
2023/09/22 08:03:36;;;;;;;;;;;;;;;;;;5083859;28;20433;-86
2023/09/22 08:06:04;;;;;;;;;;;;;;;;;;5088418;28;19923;-87
2023/09/22 08:08:30;;;;;;;;;;;;;;;;;;5079036;28;19916;-86
2023/09/22 08:10:56;;;;;;;;;;;;;;;;;;5090725;28;19913;-86
2023/09/22 08:13:21;;;;;;;;;;;;;;;;;;5094125;28;19916;-86
2023/09/22 08:15:47;;;;;;;;;;;;;;;;;;5071221;28;19964;-86
2023/09/22 08:18:12;;;;;;;;;;;;;;;;;;5085564;28;20408;-86
2023/09/22 08:20:38;;;;;;;;;;;;;;;;;;5090620;28;19965;-87
2023/09/22 08:23:03;;;;;;;;;;;;;;;;;;5076409;28;19922;-86
2023/09/22 08:25:28;;;;;;;;;;;;;;;;;;5089562;28;19912;-87
2023/09/22 08:27:54;;;;;;;;;;;;;;;;;;5075032;28;19924;-85
2023/09/22 08:30:19;;;;;;;;;;;;;;;;;;5089036;28;19913;-86
2023/09/22 08:32:45;;;;;;;;;;;;;;;;;;5075601;28;20311;-87
2023/09/22 08:35:10;;;;;;;;;;;;;;;;;;5079638;28;19924;-87
2023/09/22 08:37:45;;;;;;;;;;;;;;;;;;5071490;28;19931;-86
2023/09/22 08:40:11;;;;;;;;;;;;;;;;;;5076585;28;19920;-87
2023/09/22 08:42:37;;;;;;;;;;;;;;;;;;5077673;28;19912;-87
2023/09/22 08:45:02;;;;;;;;;;;;;;;;;;5078179;28;19970;-86
2023/09/22 08:47:28;;;;;;;;;;;;;;;;;;5077047;28;20011;-86
2023/09/22 08:49:53;;;;;;;;;;;;;;;;;;5080111;28;19916;-86
2023/09/22 08:52:20;;;;;;;;;;;;;;;;;;5071695;28;20006;-85
2023/09/22 08:54:46;;;;;;;;;;;;;;;;;;5063787;28;19917;-85
2023/09/22 08:57:12;;;;;;;;;;;;;;;;;;5064229;28;19920;-86
2023/09/22 08:59:38;;;;;;;;;;;;;;;;;;5089246;28;19962;-86
2023/09/22 09:02:03;;;;;;;;;;;;;;;;;;5079176;28;19999;-85
2023/09/22 09:04:30;;;;;;;;;;;;;;;;;;5072523;28;19916;-86
2023/09/22 09:06:56;;;;;;;;;;;;;;;;;;5077562;28;19923;-85
2023/09/22 09:09:21;;;;;;;;;;;;;;;;;;5074243;28;20378;-86
2023/09/22 09:11:46;;;;;;;;;;;;;;;;;;5080065;28;19922;-87
2023/09/22 09:14:13;;;;;;;;;;;;;;;;;;5082349;28;19916;-87
2023/09/22 09:16:39;;;;;;;;;;;;;;;;;;5077322;28;19920;-87
2023/09/22 09:19:04;;;;;;;;;;;;;;;;;;5077728;28;19916;-88
2023/09/22 09:21:30;;;;;;;;;;;;;;;;;;5061311;28;20376;-86
2023/09/22 09:23:56;;;;;;;;;;;;;;;;;;5086204;28;19923;-85
2023/09/22 09:26:21;;;;;;;;;;;;;;;;;;5092682;28;20026;-88
2023/09/22 09:28:47;;;;;;;;;;;;;;;;;;5064427;28;20395;-87
2023/09/22 09:31:17;;;;;;;;;;;;;;;;;;5070502;28;19916;-86
2023/09/22 09:33:42;;;;;;;;;;;;;;;;;;5060439;28;19922;-87
2023/09/22 09:36:08;;;;;;;;;;;;;;;;;;5058160;28;19995;-87
2023/09/22 09:38:33;;;;;;;;;;;;;;;;;;5071200;28;19916;-87
2023/09/22 09:40:59;;;;;;;;;;;;;;;;;;5093547;28;19954;-87
2023/09/22 09:43:24;;;;;;;;;;;;;;;;;;5054709;28;19920;-87
2023/09/22 09:45:49;;;;;;;;;;;;;;;;;;5069632;28;20007;-86
2023/09/22 09:48:16;;;;;;;;;;;;;;;;;;5051594;28;19916;-87
2023/09/22 09:50:41;;;;;;;;;;;;;;;;;;5059112;28;19916;-86
2023/09/22 09:53:06;;;;;;;;;;;;;;;;;;5063537;28;19916;-86
2023/09/22 09:55:32;;;;;;;;;;;;;;;;;;5059246;28;19975;-87
2023/09/22 09:57:58;;;;;;;;;;;;;;;;;;5066079;28;19935;-87
2023/09/22 10:00:24;;;;;;;;;;;;;;;;;;5076827;28;19920;-87
2023/09/22 10:02:49;;;;;;;;;;;;;;;;;;5077484;28;19923;-86
2023/09/22 10:05:15;;;;;;;;;;;;;;;;;;5080205;28;19975;-87
2023/09/22 10:07:40;;;;;;;;;;;;;;;;;;5075709;28;19927;-88
2023/09/22 10:10:06;;;;;;;;;;;;;;;;;;5079649;28;19913;-87
2023/09/22 10:12:31;;;;;;;;;;;;;;;;;;5079695;28;20395;-87
2023/09/22 10:15:01;;;;;;;;;;;;;;;;;;5081696;28;19959;-88
2023/09/22 10:17:26;;;;;;;;;;;;;;;;;;5063363;28;19921;-89
2023/09/22 10:19:52;;;;;;;;;;;;;;;;;;5061063;28;19918;-88
2023/09/22 10:22:17;;;;;;;;;;;;;;;;;;5091038;28;19970;-88
2023/09/22 10:24:43;;;;;;;;;;;;;;;;;;5072158;28;20438;-88
2023/09/22 10:27:08;;;;;;;;;;;;;;;;;;5075324;28;19924;-88
2023/09/22 10:29:34;;;;;;;;;;;;;;;;;;5088563;28;19959;-88
2023/09/22 10:32:00;;;;;;;;;;;;;;;;;;5074506;28;19916;-88
2023/09/22 10:34:26;;;;;;;;;;;;;;;;;;5049312;28;20058;-89
2023/09/22 10:36:52;;;;;;;;;;;;;;;;;;5055884;28;19928;-88
2023/09/22 10:39:17;;;;;;;;;;;;;;;;;;5081503;28;20359;-88
2023/09/22 10:41:43;;;;;;;;;;;;;;;;;;5079233;28;19965;-88
2023/09/22 10:44:08;;;;;;;;;;;;;;;;;;5061447;28;19962;-87
2023/09/22 10:46:33;;;;;;;;;;;;;;;;;;5087932;28;19931;-89
2023/09/22 10:48:59;;;;;;;;;;;;;;;;;;5092007;28;20011;-87
2023/09/22 10:51:24;;;;;;;;;;;;;;;;;;5057939;28;19917;-88
2023/09/22 10:53:50;;;;;;;;;;;;;;;;;;5071157;28;19916;-90
2023/09/22 10:56:16;;;;;;;;;;;;;;;;;;5080136;28;19928;-87
2023/09/22 10:58:41;;;;;;;;;;;;;;;;;;5054797;28;19922;-89
2023/09/22 11:01:08;;;;;;;;;;;;;;;;;;5079225;28;19921;-89
2023/09/22 11:03:34;;;;;;;;;;;;;;;;;;5082800;28;19999;-89
2023/09/22 11:05:59;;;;;;;;;;;;;;;;;;5054939;28;19923;-91
2023/09/22 11:08:25;;;;;;;;;;;;;;;;;;5071529;28;20307;-91
2023/09/22 11:10:50;;;;;;;;;;;;;;;;;;5095983;28;20379;-90
2023/09/22 11:13:15;;;;;;;;;;;;;;;;;;5072172;28;19912;-90
2023/09/22 11:15:42;;;;;;;;;;;;;;;;;;5089266;28;19916;-93
2023/09/22 11:18:08;;;;;;;;;;;;;;;;;;5068209;28;20010;-93
2023/09/22 11:20:34;;;;;;;;;;;;;;;;;;5064185;28;19916;-90
2023/09/22 11:23:00;;;;;;;;;;;;;;;;;;5067602;28;19912;-93
2023/09/22 11:25:25;;;;;;;;;;;;;;;;;;5078027;28;19932;-93
2023/09/22 11:27:51;;;;;;;;;;;;;;;;;;5061540;28;19929;-92
2023/09/22 11:30:17;;;;;;;;;;;;;;;;;;5083867;28;19916;-93
2023/09/22 11:32:43;;;;;;;;;;;;;;;;;;5060408;28;19903;-93
2023/09/22 11:35:09;;;;;;;;;;;;;;;;;;5072565;28;19939;-91
2023/09/22 11:37:45;;;;;;;;;;;;;;;;;;5088253;28;19984;-92
2023/09/22 11:40:51;;;;;;;;;;;;;;;;;;5048012;28;19970;-91
2023/09/22 11:43:17;;;;;;;;;;;;;;;;;;5023116;28;19917;-91
2023/09/22 11:45:43;;;;;;;;;;;;;;;;;;5019140;28;19913;-92
2023/09/22 11:48:08;;;;;;;;;;;;;;;;;;5039658;28;20059;-91
2023/09/22 11:50:33;;;;;;;;;;;;;;;;;;5015898;28;19936;-91
2023/09/22 11:52:59;;;;;;;;;;;;;;;;;;5028772;28;19957;-93
2023/09/22 11:55:24;;;;;;;;;;;;;;;;;;5030682;28;19972;-92
2023/09/22 11:57:50;;;;;;;;;;;;;;;;;;5015689;28;19921;-93
2023/09/22 12:00:17;;;;;;;;;;;;;;;;;;5015337;28;19945;-91
2023/09/22 12:02:43;;;;;;;;;;;;;;;;;;5024233;28;19916;-92
2023/09/22 12:05:09;;;;;;;;;;;;;;;;;;5010911;28;19913;-92
2023/09/22 12:07:34;;;;;;;;;;;;;;;;;;5015112;28;20257;-92
2023/09/22 12:10:00;;;;;;;;;;;;;;;;;;5034166;28;19920;-91
2023/09/22 12:12:26;;;;;;;;;;;;;;;;;;5075073;28;19942;-91
2023/09/22 12:14:53;;;;;;;;;;;;;;;;;;5059570;28;19912;-93
2023/09/22 12:17:24;;;;;;;;;;;;;;;;;;5082472;28;19928;-92
2023/09/22 12:19:53;;;;;;;;;;;;;;;;;;5063728;28;19923;-92
2023/09/22 12:22:19;;;;;;;;;;;;;;;;;;5097758;28;19923;-92
2023/09/22 12:24:56;;;;;;;;;;;;;;;;;;5091138;28;19921;-91
2023/09/22 12:27:22;;;;;;;;;;;;;;;;;;5070272;28;19980;-91
2023/09/22 12:29:48;;;;;;;;;;;;;;;;;;5058028;28;19897;-92
2023/09/22 12:32:16;;;;;;;;;;;;;;;;;;5073305;28;19897;-91
2023/09/22 12:34:50;;;;;;;;;;;;;;;;;;5075769;28;19893;-92
2023/09/22 12:37:17;;;;;;;;;;;;;;;;;;5079491;28;19926;-91
2023/09/22 12:39:54;;;;;;;;;;;;;;;;;;5075448;28;19912;-92
2023/09/22 12:42:20;;;;;;;;;;;;;;;;;;5076179;28;19917;-93
2023/09/22 12:44:48;;;;;;;;;;;;;;;;;;5059587;28;19917;-92
2023/09/22 12:47:14;;;;;;;;;;;;;;;;;;5055593;28;19923;-92
2023/09/22 12:49:39;;;;;;;;;;;;;;;;;;5071189;28;19939;-92
2023/09/22 12:52:07;;;;;;;;;;;;;;;;;;5066207;28;19924;-93
2023/09/22 12:54:33;;;;;;;;;;;;;;;;;;5053129;28;19924;-91
2023/09/22 12:57:04;;;;;;;;;;;;;;;;;;5084529;28;19931;-92
2023/09/22 12:59:33;;;;;;;;;;;;;;;;;;5082850;28;19917;-92
2023/09/22 13:02:06;;;;;;;;;;;;;;;;;;5094683;28;19912;-91
2023/09/22 13:04:33;;;;;;;;;;;;;;;;;;5043600;28;19917;-88
2023/09/22 13:06:58;;;;;;;;;;;;;;;;;;5060524;28;19913;-89
2023/09/22 13:09:24;;;;;;;;;;;;;;;;;;5050223;28;19917;-89
2023/09/22 13:11:49;;;;;;;;;;;;;;;;;;5049267;28;19959;-89
2023/09/22 13:14:15;;;;;;;;;;;;;;;;;;5056290;28;19924;-89
2023/09/22 13:16:41;;;;;;;;;;;;;;;;;;5048740;28;19924;-88
2023/09/22 13:19:06;;;;;;;;;;;;;;;;;;5067276;28;19928;-88
2023/09/22 13:21:31;;;;;;;;;;;;;;;;;;5082357;28;19912;-89
2023/09/22 13:23:57;;;;;;;;;;;;;;;;;;5050736;28;20411;-89
2023/09/22 13:26:23;;;;;;;;;;;;;;;;;;5063176;28;20402;-88
2023/09/22 13:28:50;;;;;;;;;;;;;;;;;;5065504;28;19966;-88
2023/09/22 13:31:15;;;;;;;;;;;;;;;;;;5046086;28;19920;-88
2023/09/22 13:33:41;;;;;;;;;;;;;;;;;;5063499;28;19921;-88
2023/09/22 13:36:06;;;;;;;;;;;;;;;;;;5056643;28;19919;-88
2023/09/22 13:38:32;;;;;;;;;;;;;;;;;;5046891;28;19916;-89
2023/09/22 13:40:59;;;;;;;;;;;;;;;;;;5041331;28;19913;-88
2023/09/22 13:43:27;;;;;;;;;;;;;;;;;;5064698;28;19916;-88
2023/09/22 13:45:52;;;;;;;;;;;;;;;;;;5059546;28;19912;-88
2023/09/22 13:48:18;;;;;;;;;;;;;;;;;;5063658;28;19927;-88
2023/09/22 13:50:43;;;;;;;;;;;;;;;;;;5045183;28;19913;-87
2023/09/22 13:53:10;;;;;;;;;;;;;;;;;;5044505;28;20366;-87
2023/09/22 13:55:38;;;;;;;;;;;;;;;;;;5070002;28;19913;-88
2023/09/22 13:58:04;;;;;;;;;;;;;;;;;;5043660;28;19921;-89
2023/09/22 14:00:29;;;;;;;;;;;;;;;;;;5060299;28;19912;-88
2023/09/22 14:03:20;;;;;;;;;;;;;;;;;;5060980;28;19926;-89
2023/09/22 14:05:46;;;;;;;;;;;;;;;;;;5041862;28;19924;-89
2023/09/22 14:08:14;;;;;;;;;;;;;;;;;;5042189;28;19913;-89
2023/09/22 14:10:39;;;;;;;;;;;;;;;;;;5059160;28;20292;-89
2023/09/22 14:13:05;;;;;;;;;;;;;;;;;;5042892;28;19913;-88
2023/09/22 14:15:30;;;;;;;;;;;;;;;;;;5060700;28;19920;-88
2023/09/22 14:17:57;;;;;;;;;;;;;;;;;;5050313;28;20063;-88
2023/09/22 14:20:22;;;;;;;;;;;;;;;;;;5043314;28;19966;-89
2023/09/22 14:22:48;;;;;;;;;;;;;;;;;;5069844;28;19917;-88
2023/09/22 14:25:13;;;;;;;;;;;;;;;;;;5058089;28;20280;-88
2023/09/22 14:27:39;;;;;;;;;;;;;;;;;;5059021;28;19925;-89
2023/09/22 14:30:07;;;;;;;;;;;;;;;;;;5059738;28;19924;-88
2023/09/22 14:32:32;;;;;;;;;;;;;;;;;;5057114;28;19913;-88
2023/09/22 14:34:58;;;;;;;;;;;;;;;;;;5041086;28;19938;-88
2023/09/22 14:37:23;;;;;;;;;;;;;;;;;;5039718;28;19927;-88
2023/09/22 14:39:50;;;;;;;;;;;;;;;;;;5040137;28;19917;-87
2023/09/22 14:42:15;;;;;;;;;;;;;;;;;;5065453;28;20363;-88
2023/09/22 14:44:41;;;;;;;;;;;;;;;;;;5059228;28;19967;-89
2023/09/22 14:47:06;;;;;;;;;;;;;;;;;;5046882;28;19919;-87
2023/09/22 14:49:32;;;;;;;;;;;;;;;;;;5057264;28;20011;-88
2023/09/22 14:51:58;;;;;;;;;;;;;;;;;;5054845;28;20390;-88
2023/09/22 14:54:23;;;;;;;;;;;;;;;;;;5068449;28;19917;-88
2023/09/22 14:56:49;;;;;;;;;;;;;;;;;;5051267;28;19916;-88
2023/09/22 14:59:14;;;;;;;;;;;;;;;;;;5066315;28;19916;-88
2023/09/22 15:01:40;;;;;;;;;;;;;;;;;;5056977;28;19919;-88
2023/09/22 15:04:05;;;;;;;;;;;;;;;;;;5055949;28;19916;-87
2023/09/22 15:06:31;;;;;;;;;;;;;;;;;;5038799;28;19939;-87
2023/09/22 15:08:57;;;;;;;;;;;;;;;;;;5038657;28;20337;-88
2023/09/22 15:11:22;;;;;;;;;;;;;;;;;;5062579;28;19912;-88
2023/09/22 15:13:47;;;;;;;;;;;;;;;;;;5060348;28;19916;-87
2023/09/22 15:16:13;;;;;;;;;;;;;;;;;;5054947;28;20035;-88
2023/09/22 15:18:39;;;;;;;;;;;;;;;;;;5054677;28;19916;-88
2023/09/22 15:21:08;;;;;;;;;;;;;;;;;;5053531;28;19991;-88
2023/09/22 15:23:33;;;;;;;;;;;;;;;;;;5036525;28;19921;-88
2023/09/22 15:26:01;;;;;;;;;;;;;;;;;;5054807;28;20074;-88
2023/09/22 15:28:27;;;;;;;;;;;;;;;;;;5074312;28;19962;-89
2023/09/22 15:30:52;;;;;;;;;;;;;;;;;;5052457;28;19920;-87
2023/09/22 15:33:18;;;;;;;;;;;;;;;;;;5075470;28;19979;-88
2023/09/22 15:35:43;;;;;;;;;;;;;;;;;;5075302;28;19921;-87
2023/09/22 15:38:11;;;;;;;;;;;;;;;;;;5075538;28;19978;-88
2023/09/22 15:40:36;;;;;;;;;;;;;;;;;;5043489;28;20365;-88
2023/09/22 15:43:03;;;;;;;;;;;;;;;;;;5071440;28;19923;-88
2023/09/22 15:45:29;;;;;;;;;;;;;;;;;;5075459;28;19912;-86
2023/09/22 15:47:54;;;;;;;;;;;;;;;;;;5074995;28;19989;-87
2023/09/22 15:50:21;;;;;;;;;;;;;;;;;;5079929;28;20404;-89
2023/09/22 15:52:47;;;;;;;;;;;;;;;;;;5080194;28;19952;-87
2023/09/22 15:55:13;;;;;;;;;;;;;;;;;;5058391;28;19912;-87
2023/09/22 15:57:39;;;;;;;;;;;;;;;;;;5060264;28;20403;-87
2023/09/22 16:00:05;;;;;;;;;;;;;;;;;;5073062;28;19919;-89
2023/09/22 16:02:31;;;;;;;;;;;;;;;;;;5075312;28;20345;-87
2023/09/22 16:04:57;;;;;;;;;;;;;;;;;;5065723;28;19912;-87
2023/09/22 16:07:22;;;;;;;;;;;;;;;;;;5078715;28;19970;-88
2023/09/22 16:09:47;;;;;;;;;;;;;;;;;;5075762;28;20394;-87
2023/09/22 16:12:13;;;;;;;;;;;;;;;;;;5075950;28;19923;-87
2023/09/22 16:14:38;;;;;;;;;;;;;;;;;;5075589;28;19912;-87
2023/09/22 16:17:03;;;;;;;;;;;;;;;;;;5078497;28;19920;-88
2023/09/22 16:19:29;;;;;;;;;;;;;;;;;;5074879;28;19935;-85
2023/09/22 16:21:54;;;;;;;;;;;;;;;;;;5081009;28;19916;-87
2023/09/22 16:24:19;;;;;;;;;;;;;;;;;;5079288;28;19948;-87
2023/09/22 16:26:46;;;;;;;;;;;;;;;;;;5081967;28;19920;-87
2023/09/22 16:29:12;;;;;;;;;;;;;;;;;;5070277;28;19912;-87
2023/09/22 16:31:37;;;;;;;;;;;;;;;;;;5074684;28;20375;-87
2023/09/22 16:34:03;;;;;;;;;;;;;;;;;;5054694;28;19916;-86
2023/09/22 16:36:28;;;;;;;;;;;;;;;;;;5070813;28;19930;-87
2023/09/22 16:38:54;;;;;;;;;;;;;;;;;;5071562;28;19924;-87